Happy Valentine's Day! 

Flight Track Log - Related Links

Times and Time Zones

All times are in EDT time to prevent confusion due to time zone crossing. See the CPZ5808 flight status page for this flight to view local times or setup timezone preferences in your user account.


Time Position Orientation Groundspeed Altitude Reporting Facility
EDT Latitude Longitude Course Direction KTS MPH feet Rate Location/Type
Thu 03:33:28 PM 44.8944 -93.2528 265° West 170 196 2,300  Level FAA TRACON SMA TRACON (SMA)
Thu 03:34:07 PM 44.8911 -93.3058 257° West 206 237 3,400 2,278 Climbing FAA TRACON SMA TRACON (SMA)
Thu 03:34:47 PM 44.8814 -93.3669 209° Southwest 236 272 5,300 2,296 Climbing FAA TRACON SMA TRACON (SMA)
Thu 03:35:28 PM 44.8444 -93.3964 175° South 265 305 6,500 2,074 Climbing FAA TRACON SMA TRACON (SMA)
Thu 03:36:08 PM 44.7886 -93.3894 141° Southeast 301 346 8,100 2,400 Climbing FAA TRACON SMA TRACON (SMA)
Thu 03:36:48 PM 44.7419 -93.3369 137° Southeast 314 361 9,700 1,950 Climbing FAA TRACON SMA TRACON (SMA)
Thu 03:37:28 PM 44.6950 -93.2744 137° Southeast 343 395 10,700 1,500 Climbing FAA TRACON SMA TRACON (SMA)
Thu 03:38:08 PM 44.6475 -93.2128 137° Southeast 379 436 11,700 1,650 Climbing FAA TRACON SMA TRACON (SMA)
Thu 03:38:48 PM 44.5922 -93.1400 137° Southeast 395 455 12,900 1,926 Climbing FAA TRACON SMA TRACON (SMA)
Thu 03:39:29 PM 44.5353 -93.0656 137° Southeast 405 466 14,300 1,800 Climbing FAA TRACON SMA TRACON (SMA)
Thu 03:40:08 PM 44.4825 -92.9969 137° Southeast 421 484 15,300 1,823 Climbing FAA TRACON SMA TRACON (SMA)
Thu 03:40:48 PM 44.4219 -92.9178 137° Southeast 431 496 16,700 1,275 Climbing FAA TRACON SMA TRACON (SMA)
Thu 03:41:28 PM 44.3603 -92.8383 138° Southeast 435 501 17,000 222 Climbing FAA TRACON SMA TRACON (SMA)
Thu 03:42:09 PM 44.3053 -92.7686 139° Southeast 434 499 17,000 370 Level FAA TRACON SMA TRACON (SMA)
Thu 03:42:49 PM 44.2425 -92.6914 137° Southeast 435 501 17,500 1,125 Climbing FAA TRACON SMA TRACON (SMA)
Thu 03:43:29 PM 44.1803 -92.6108 139° Southeast 442 509 18,500 1,425 Climbing FAA TRACON SMA TRACON (SMA)
Thu 03:44:09 PM 44.1222 -92.5397 137° Southeast 451 519 19,400 1,556 Climbing FAA TRACON SMA TRACON (SMA)
Thu 03:44:50 PM 44.0578 -92.4567 141° Southeast 457 526 20,600 1,500 Climbing FAA TRACON SMA TRACON (SMA)
Thu 03:46:09 PM 43.9256 -92.3094 138° Southeast 457 526 22,400 1,338 Climbing Minneapolis Center
Thu 03:47:09 PM 43.8264 -92.1878 141° Southeast 470 541 23,700 1,250 Climbing Minneapolis Center
Thu 03:48:09 PM 43.7358 -92.0864 139° Southeast 470 541 24,900 1,100 Climbing Minneapolis Center
Thu 03:49:09 PM 43.6342 -91.9625 139° Southeast 478 550 25,900 1,000 Climbing Minneapolis Center
Thu 03:51:15 PM 43.4003 -91.6842 139° Southeast 502 578 28,000 1,032 Climbing Chicago Center
Thu 03:52:15 PM 43.2903 -91.5544 144° Southeast 520 598 29,100 1,300 Climbing Chicago Center
Thu 03:53:15 PM 43.1736 -91.4364 145° Southeast 526 605 30,600 950 Climbing Chicago Center
Thu 03:54:15 PM 43.0547 -91.3244 144° Southeast 526 605 31,000 200 Climbing Chicago Center
Thu 03:55:15 PM 42.9339 -91.2044 146° Southeast 526 605 31,000  Level Chicago Center
Thu 03:56:15 PM 42.8106 -91.0903 145° Southeast 531 611 31,000 -50 Level Chicago Center
Thu 03:57:15 PM 42.6914 -90.9769 146° Southeast 531 611 30,900 -1,300 Descending Chicago Center
Thu 03:58:15 PM 42.5697 -90.8639 145° Southeast 531 611 28,400 -2,550 Descending Chicago Center
Thu 03:59:15 PM 42.4586 -90.7597 156° South 516 594 25,800 -1,900 Descending Chicago Center
Thu 04:00:15 PM 42.3344 -90.6842 167° South 465 535 24,600 -900 Descending Chicago Center
Thu 04:01:15 PM 42.2078 -90.6450 166° South 465 535 24,000 -300 Descending Chicago Center
Thu 04:02:15 PM 42.0831 -90.6033 166° South 470 541 24,000 -150 Level Chicago Center
Thu 04:03:15 PM 41.9586 -90.5617 167° South 470 541 23,700 -500 Descending Chicago Center
Thu 04:04:15 PM 41.8317 -90.5231 161° South 470 541 23,000 -350 Descending Chicago Center
Thu 04:05:15 PM 41.7094 -90.4653 132° Southeast 470 541 23,000  Level Chicago Center
Thu 04:06:15 PM 41.6208 -90.3358 129° Southeast 474 545 23,000  Level Chicago Center
Thu 04:07:15 PM 41.5367 -90.1961 130° Southeast 480 552 23,000  Level Chicago Center
Thu 04:08:15 PM 41.4519 -90.0592 129° Southeast 480 552 23,000 -1,100 Level Chicago Center
Thu 04:09:15 PM 41.3694 -89.9253 129° Southeast 475 547 20,800 -2,350 Descending Chicago Center
Thu 04:10:15 PM 41.2886 -89.7947 129° Southeast 470 541 18,300 -2,400 Descending Chicago Center
Thu 04:11:15 PM 41.2097 -89.6672 117° Southeast 465 535 16,000 -1,900 Descending Chicago Center
Thu 04:12:15 PM 41.1642 -89.5486 76° East 445 512 14,500 -1,900 Descending Chicago Center
Thu 04:13:15 PM 41.1914 -89.4078 66° East 418 481 12,200 -1,500 Descending Chicago Center
Thu 04:14:15 PM 41.2269 -89.3003 66° East 379 436 11,500 -750 Descending Chicago Center
Thu 04:15:15 PM 41.2644 -89.1897 67° East 311 358 10,700 -750 Descending Chicago Center
Thu 04:16:15 PM 41.2975 -89.0875 66° East 293 337 10,000 -700 Descending Chicago Center
Thu 04:17:15 PM 41.3306 -88.9878 67° East 293 337 9,300 -750 Descending Chicago Center
Thu 04:18:15 PM 41.3636 -88.8850 66° East 293 337 8,500 -700 Descending Chicago Center
Thu 04:19:15 PM 41.3944 -88.7908 66° East 293 337 7,900 -650 Descending Chicago Center
Thu 04:20:15 PM 41.4272 -88.6908 66° East 293 337 7,200 -700 Descending Chicago Center
Thu 04:21:15 PM 41.4581 -88.5992 65° Northeast 293 337 6,500 -600 Descending Chicago Center
Thu 04:22:15 PM 41.4906 -88.5072 57° Northeast 280 322 6,000 -750 Descending Chicago Center
Thu 04:23:15 PM 41.5297 -88.4264 73° East 268 308 5,000 -750 Descending Chicago Center
Thu 04:24:15 PM 41.5517 -88.3317 72° East 263 303 4,500 -500 Descending Chicago Center
Thu 04:25:15 PM 41.5739 -88.2397 74° East 253 291 4,000 -250 Descending Chicago Center
Thu 04:26:15 PM 41.5939 -88.1478 71° East 248 285 4,000  Level Chicago Center
Thu 04:27:15 PM 41.6178 -88.0528 73° East 248 285 4,000  Level Chicago Center
Thu 04:28:15 PM 41.6375 -87.9636 54° Northeast 248 285 4,000 -200 Level Chicago Center
Thu 04:29:15 PM 41.6722 -87.8989 41° Northeast 230 265 3,600 -625 Descending Chicago Center
Thu 04:29:51 PM 41.7000 -87.8667 37° Northeast 189 217 3,000 -938 Descending Chicago TRACON
Thu 04:30:51 PM 41.7333 -87.8333 56° Northeast 151 174 2,100 -750 Descending Chicago TRACON
Thu 04:31:51 PM 41.7500 -87.8000 56° Northeast 117 135 1,500 -600 Descending Chicago TRACON

Login

Don't have an account? Register now (free) for customized features, flight alerts, and more!